Time;durP1;ratioP1;P1;durP2;ratioP2;P2;SDS_P1;SDS_P2;PMS_P1;PMS_P2;Temp;Humidity;BMP_temperature;BMP_pressure;BME280_temperature;BME280_humidity;BME280_pressure;Samples;Min_cycle;Max_cycle;Signal;HPM_P1;HPM_P2
2022/09/13 07:40:36;;;;;;;8.05;1.77;;;17.70;68.20;;;;;;5087741;27;20444;-52
2022/09/13 07:43:05;;;;;;;5.80;1.52;;;17.70;64.10;;;;;;5089273;28;20020;-52
2022/09/13 07:45:33;;;;;;;4.85;1.50;;;17.60;63.80;;;;;;5092355;28;20433;-52
2022/09/13 07:48:01;;;;;;;5.90;1.48;;;17.60;64.40;;;;;;5084419;28;20025;-57
2022/09/13 07:50:29;;;;;;;6.25;1.40;;;17.70;65.60;;;;;;5084362;28;20598;-55
2022/09/13 07:52:57;;;;;;;5.72;1.35;;;17.80;64.10;;;;;;5091380;28;20044;-55
2022/09/13 07:55:25;;;;;;;5.43;1.50;;;17.80;63.70;;;;;;5085300;28;20028;-55
2022/09/13 07:57:53;;;;;;;6.72;1.45;;;17.90;63.40;;;;;;5091071;28;20040;-55
2022/09/13 08:00:23;;;;;;;7.72;2.08;;;17.90;63.70;;;;;;5087428;28;20086;-56
2022/09/13 08:02:51;;;;;;;7.20;1.80;;;18.00;63.50;;;;;;5086466;28;20101;-55
2022/09/13 08:05:19;;;;;;;7.13;1.58;;;17.90;65.40;;;;;;5095300;28;20031;-57
2022/09/13 08:07:47;;;;;;;10.85;2.05;;;18.00;65.70;;;;;;5095407;28;20039;-55
2022/09/13 08:10:15;;;;;;;8.95;1.95;;;18.00;66.50;;;;;;5091189;28;20481;-56
2022/09/13 08:12:43;;;;;;;7.85;2.05;;;18.00;66.70;;;;;;5081937;28;20498;-56
2022/09/13 08:15:11;;;;;;;8.30;1.52;;;18.00;65.00;;;;;;5073672;28;20456;-55
2022/09/13 08:17:39;;;;;;;6.93;1.45;;;18.00;65.50;;;;;;5091070;28;20226;-55
2022/09/13 08:20:08;;;;;;;7.78;1.50;;;17.90;65.00;;;;;;5086909;28;20107;-55
2022/09/13 08:22:36;;;;;;;7.32;1.63;;;18.00;64.40;;;;;;5093196;28;20539;-56
2022/09/13 08:25:04;;;;;;;8.90;2.38;;;17.90;64.60;;;;;;5083989;28;20095;-56
2022/09/13 08:27:33;;;;;;;5.38;1.63;;;17.90;64.00;;;;;;5080128;28;20021;-56
2022/09/13 08:30:01;;;;;;;10.45;2.10;;;18.00;63.90;;;;;;5076345;28;20109;-56
2022/09/13 08:32:29;;;;;;;8.45;1.95;;;18.00;63.30;;;;;;5071212;28;20024;-56
2022/09/13 08:34:57;;;;;;;8.85;1.63;;;18.00;63.00;;;;;;5081557;28;20029;-56
2022/09/13 08:37:26;;;;;;;6.45;1.58;;;17.90;62.50;;;;;;5066631;28;20471;-56
2022/09/13 08:39:53;;;;;;;7.80;1.83;;;17.90;62.30;;;;;;5066134;28;20049;-59
2022/09/13 08:42:21;;;;;;;7.90;1.80;;;17.90;62.00;;;;;;5071786;28;20029;-56
2022/09/13 08:44:56;;;;;;;6.35;1.80;;;17.90;62.70;;;;;;5085090;28;20055;-56
2022/09/13 08:47:39;;;;;;;5.25;1.50;;;17.90;62.30;;;;;;5074842;28;20082;-56
2022/09/13 08:50:18;;;;;;;7.15;1.63;;;17.90;61.80;;;;;;5060653;28;20108;-55
2022/09/13 08:52:55;;;;;;;5.63;1.60;;;17.90;61.70;;;;;;5067775;28;20039;-55
2022/09/13 08:55:41;;;;;;;5.82;1.67;;;17.90;61.90;;;;;;5066451;28;20036;-59
2022/09/13 08:58:24;;;;;;;7.35;1.70;;;17.90;62.00;;;;;;5057925;28;20036;-54
2022/09/13 09:01:13;;;;;;;7.22;2.00;;;17.90;61.80;;;;;;5066129;28;20032;-55
2022/09/13 09:04:10;;;;;;;6.60;2.28;;;17.90;61.80;;;;;;5067274;28;20020;-55
2022/09/13 09:06:38;;;;;;;9.23;1.92;;;18.00;62.00;;;;;;5041839;28;20032;-56
2022/09/13 09:09:18;;;;;;;8.93;1.70;;;17.90;61.70;;;;;;5066725;28;20013;-55
2022/09/13 09:12:17;;;;;;;7.43;1.90;;;17.90;61.70;;;;;;5061724;28;20471;-56
2022/09/13 09:14:57;;;;;;;6.30;1.80;;;17.90;62.20;;;;;;5056736;28;20082;-56
2022/09/13 09:17:35;;;;;;;7.95;1.90;;;17.90;62.10;;;;;;5054906;28;20098;-56
2022/09/13 09:20:43;;;;;;;9.05;1.70;;;17.90;61.70;;;;;;5067551;28;20037;-55
2022/09/13 09:23:19;;;;;;;9.18;1.90;;;17.90;61.80;;;;;;5058502;28;20092;-56
2022/09/13 09:25:56;;;;;;;8.30;1.83;;;17.90;62.20;;;;;;5052379;28;20456;-56
2022/09/13 09:28:30;;;;;;;7.18;1.75;;;17.90;62.00;;;;;;5052483;28;20033;-56
2022/09/13 09:31:25;;;;;;;8.00;1.75;;;17.90;61.80;;;;;;5064537;28;20090;-56
2022/09/13 09:34:11;;;;;;;9.75;2.00;;;18.00;61.50;;;;;;5064254;28;20032;-57
2022/09/13 09:36:49;;;;;;;5.68;1.65;;;18.00;61.60;;;;;;5063808;28;20055;-56
2022/09/13 09:39:17;;;;;;;11.52;2.00;;;17.90;61.30;;;;;;5071816;28;20090;-55
2022/09/13 09:41:46;;;;;;;8.57;1.60;;;17.90;61.30;;;;;;5074931;28;20024;-55
2022/09/13 09:44:20;;;;;;;7.03;1.40;;;17.90;61.90;;;;;;5071023;28;20710;-56
2022/09/13 09:47:02;;;;;;;8.55;1.80;;;17.90;62.10;;;;;;5072236;28;20017;-55
2022/09/13 09:52:50;;;;;;;5.75;1.58;;;17.90;62.40;;;;;;5068940;28;20071;-56
2022/09/13 09:55:39;;;;;;;8.50;2.00;;;17.90;63.20;;;;;;5088443;28;20474;-55
2022/09/13 09:58:10;;;;;;;6.85;1.48;;;17.90;63.00;;;;;;5058488;28;20029;-56
2022/09/13 10:00:54;;;;;;;6.88;1.40;;;17.90;63.80;;;;;;5065398;28;20483;-54
2022/09/13 10:03:26;;;;;;;5.93;1.50;;;17.90;64.90;;;;;;5065094;28;20056;-55
2022/09/13 10:06:14;;;;;;;9.10;1.80;;;17.90;64.40;;;;;;5069221;28;20039;-56
2022/09/13 10:08:47;;;;;;;9.85;1.90;;;17.90;65.00;;;;;;5068885;28;20052;-56
2022/09/13 10:11:15;;;;;;;11.65;1.85;;;17.90;65.80;;;;;;5069772;28;20462;-57
2022/09/13 10:14:02;;;;;;;7.38;1.70;;;17.90;66.20;;;;;;5068398;28;20420;-57
2022/09/13 10:16:31;;;;;;;11.23;2.03;;;18.00;66.60;;;;;;5062880;28;20476;-57
2022/09/13 10:19:37;;;;;;;6.38;1.70;;;18.00;65.40;;;;;;5064905;28;20453;-56
2022/09/13 10:22:12;;;;;;;8.20;1.60;;;18.00;65.80;;;;;;4991851;28;20099;-55
2022/09/13 10:24:41;;;;;;;7.05;1.60;;;18.00;66.30;;;;;;4990438;28;20031;-55
2022/09/13 10:27:26;;;;;;;6.18;1.85;;;18.00;66.10;;;;;;5030144;28;20391;-56
2022/09/13 10:29:58;;;;;;;7.22;1.60;;;18.00;66.00;;;;;;5069771;28;20029;-56
2022/09/13 10:32:31;;;;;;;5.20;1.48;;;18.00;66.20;;;;;;5081122;28;20479;-58
2022/09/13 10:35:15;;;;;;;9.27;1.90;;;18.00;65.60;;;;;;5091251;28;20024;-56
2022/09/13 10:37:45;;;;;;;7.47;1.60;;;18.10;65.70;;;;;;5087293;28;20297;-55
2022/09/13 10:40:37;;;;;;;7.43;1.80;;;18.10;65.50;;;;;;5075156;28;20048;-58
2022/09/13 10:43:18;;;;;;;7.55;1.73;;;18.10;64.90;;;;;;5068754;28;20390;-58
2022/09/13 10:45:51;;;;;;;10.35;2.15;;;18.20;65.10;;;;;;5071021;28;20028;-55
2022/09/13 10:48:20;;;;;;;12.95;2.13;;;18.10;64.80;;;;;;5069819;28;20107;-56
2022/09/13 10:51:28;;;;;;;8.95;1.60;;;18.10;64.80;;;;;;5061938;28;20029;-56
2022/09/13 10:54:17;;;;;;;9.95;1.52;;;18.20;64.30;;;;;;5050550;28;20053;-55
2022/09/13 10:56:47;;;;;;;8.93;1.50;;;18.20;64.00;;;;;;5050698;28;20025;-56
2022/09/13 10:59:29;;;;;;;5.97;1.25;;;18.10;63.30;;;;;;5050089;28;20033;-56
2022/09/13 11:02:17;;;;;;;;;;;18.10;63.30;;;;;;5066003;28;20081;-56
2022/09/13 11:05:24;;;;;;;6.22;1.35;;;18.20;63.80;;;;;;5069052;28;19916;-56
2022/09/13 11:08:13;;;;;;;8.30;1.55;;;18.10;63.20;;;;;;5037702;28;20138;-56
2022/09/13 11:11:07;;;;;;;6.45;1.33;;;18.10;62.80;;;;;;5064472;28;20036;-56
2022/09/13 11:14:09;;;;;;;5.03;1.20;;;18.10;62.40;;;;;;5076551;28;20032;-55
2022/09/13 11:16:56;;;;;;;6.43;1.50;;;18.20;62.60;;;;;;5076774;28;20020;-56
2022/09/13 11:19:41;;;;;;;3.72;1.02;;;18.20;62.40;;;;;;5070485;28;20100;-58
2022/09/13 11:22:31;;;;;;;8.90;1.75;;;18.20;62.00;;;;;;5069633;28;20517;-54
2022/09/13 11:25:34;;;;;;;6.15;1.27;;;18.20;61.40;;;;;;5070254;28;20029;-54
2022/09/13 11:28:20;;;;;;;6.10;1.45;;;18.20;62.10;;;;;;5069734;28;20032;-56
2022/09/13 11:31:05;;;;;;;7.28;1.58;;;18.20;62.40;;;;;;5068166;28;20036;-56
2022/09/13 11:33:43;;;;;;;5.90;1.38;;;18.20;62.00;;;;;;5077541;28;20489;-56
2022/09/13 11:36:30;;;;;;;8.30;1.30;;;18.20;61.60;;;;;;5089245;28;20513;-56
2022/09/13 11:39:15;;;;;;;5.22;1.35;;;18.20;61.50;;;;;;5069478;28;20048;-57
2022/09/13 11:42:14;;;;;;;7.47;1.33;;;18.20;61.20;;;;;;5049705;28;20172;-57
2022/09/13 11:45:07;;;;;;;5.15;1.33;;;18.20;61.30;;;;;;5048290;28;20033;-56
2022/09/13 11:47:44;;;;;;;;;;;18.10;61.20;;;;;;5089180;28;20052;-56
2022/09/13 11:50:37;;;;;;;5.03;1.30;;;18.10;61.40;;;;;;5084848;28;19909;-56
2022/09/13 11:53:08;;;;;;;6.55;1.27;;;18.10;61.70;;;;;;5055571;28;20056;-57
2022/09/13 11:56:04;;;;;;;9.70;1.50;;;18.10;62.30;;;;;;5054101;28;20028;-56
2022/09/13 11:58:51;;;;;;;6.32;1.25;;;18.10;62.10;;;;;;5064832;28;20059;-56
2022/09/13 12:01:33;;;;;;;10.02;1.60;;;18.20;62.00;;;;;;5062784;28;20029;-57
2022/09/13 12:04:06;;;;;;;12.90;2.00;;;18.20;61.90;;;;;;5072010;28;20024;-57
2022/09/13 12:06:39;;;;;;;9.10;2.10;;;18.20;61.60;;;;;;5083861;28;20382;-57
2022/09/13 12:09:54;;;;;;;7.45;2.63;;;18.20;61.70;;;;;;5068490;28;20055;-57
2022/09/13 12:12:26;;;;;;;7.03;2.42;;;18.30;61.90;;;;;;5037792;28;20037;-57
2022/09/13 12:15:16;;;;;;;10.88;2.53;;;18.30;62.00;;;;;;5049545;28;20526;-57
2022/09/13 12:17:59;;;;;;;9.02;2.55;;;18.30;61.70;;;;;;5078644;28;20354;-56
2022/09/13 12:20:35;;;;;;;7.60;2.53;;;18.20;61.50;;;;;;5085253;28;20064;-57
2022/09/13 12:23:11;;;;;;;6.15;2.00;;;18.30;61.30;;;;;;5068449;28;20021;-57
2022/09/13 12:26:01;;;;;;;5.40;2.05;;;18.30;61.40;;;;;;5069650;28;20029;-58
2022/09/13 12:29:21;;;;;;;7.93;2.00;;;18.30;61.30;;;;;;5073078;28;20029;-56
2022/09/13 12:31:50;;;;;;;7.78;2.40;;;18.30;61.20;;;;;;5030189;28;20036;-57
2022/09/13 12:34:25;;;;;;;8.18;2.08;;;18.30;61.20;;;;;;5057166;28;20021;-56
2022/09/13 12:36:57;;;;;;;8.45;2.17;;;18.30;61.30;;;;;;5083396;28;20329;-56
2022/09/13 12:39:32;;;;;;;6.85;2.00;;;18.30;61.20;;;;;;5053036;28;20056;-57
2022/09/13 12:42:03;;;;;;;8.10;2.00;;;18.20;61.10;;;;;;5067894;28;20025;-56
2022/09/13 12:45:00;;;;;;;7.47;2.00;;;18.20;61.10;;;;;;5072902;28;20432;-57
2022/09/13 12:47:40;;;;;;;8.15;2.67;;;18.20;61.10;;;;;;5073349;28;20367;-57
2022/09/13 12:50:18;;;;;;;10.32;2.60;;;18.20;61.00;;;;;;5073286;28;20028;-57
2022/09/13 12:52:58;;;;;;;8.68;2.33;;;18.20;61.00;;;;;;5072793;28;20024;-57
2022/09/13 12:55:55;;;;;;;6.70;2.10;;;18.20;60.90;;;;;;5093352;28;20016;-57
2022/09/13 12:58:51;;;;;;;11.52;2.47;;;18.20;60.80;;;;;;5093221;28;20052;-57
2022/09/13 13:01:22;;;;;;;8.40;1.92;;;18.20;60.70;;;;;;5082267;28;20024;-57
2022/09/13 13:04:22;;;;;;;8.27;2.13;;;18.20;60.70;;;;;;5073364;28;20066;-57
2022/09/13 13:06:51;;;;;;;11.00;2.28;;;18.20;60.50;;;;;;5060611;28;20079;-57
2022/09/13 13:09:47;;;;;;;5.30;1.98;;;18.20;60.50;;;;;;5072312;28;20028;-57
2022/09/13 13:12:35;;;;;;;7.25;1.98;;;18.20;60.40;;;;;;5057799;28;20040;-57
2022/09/13 13:15:26;;;;;;;6.55;1.98;;;18.20;60.50;;;;;;5052228;28;20022;-57
2022/09/13 13:17:56;;;;;;;6.28;1.92;;;18.20;60.00;;;;;;5014546;28;20106;-57
2022/09/13 13:20:45;;;;;;;4.47;1.63;;;18.20;59.80;;;;;;5053193;28;20057;-56
2022/09/13 13:23:30;;;;;;;8.93;2.08;;;18.20;59.60;;;;;;5057834;28;20168;-56
2022/09/13 13:26:12;;;;;;;3.88;1.73;;;18.20;59.40;;;;;;5059903;28;20379;-57
2022/09/13 13:28:43;;;;;;;7.00;1.67;;;18.20;59.40;;;;;;5064344;28;20032;-56
2022/09/13 13:31:26;;;;;;;7.10;1.97;;;18.20;59.30;;;;;;5068963;28;20020;-56
2022/09/13 13:34:09;;;;;;;8.20;1.80;;;18.20;59.30;;;;;;5059846;28;20441;-56
2022/09/13 13:36:41;;;;;;;6.15;1.88;;;18.10;59.40;;;;;;5056496;28;20349;-57
2022/09/13 13:39:23;;;;;;;6.13;1.50;;;18.10;59.50;;;;;;5051578;28;20065;-57
2022/09/13 13:41:59;;;;;;;7.63;1.90;;;18.10;59.40;;;;;;5065666;28;20029;-56
2022/09/13 13:44:32;;;;;;;5.95;1.90;;;18.10;59.50;;;;;;5069763;28;20025;-56
2022/09/13 13:47:09;;;;;;;6.50;1.80;;;18.10;59.60;;;;;;5054534;28;20064;-55
2022/09/13 13:49:37;;;;;;;4.68;1.73;;;18.10;59.60;;;;;;5070572;28;20035;-56
2022/09/13 13:52:15;;;;;;;6.03;1.73;;;18.10;59.70;;;;;;5062926;28;20028;-57
2022/09/13 13:54:49;;;;;;;6.80;1.70;;;18.20;59.80;;;;;;5053606;28;20314;-56
2022/09/13 13:57:26;;;;;;;4.82;1.55;;;18.20;59.80;;;;;;5051176;28;20471;-57
2022/09/13 14:00:16;;;;;;;5.13;1.80;;;18.20;59.80;;;;;;5060172;28;20128;-56
2022/09/13 14:02:53;;;;;;;8.05;1.80;;;18.20;59.80;;;;;;5083263;28;20100;-56
2022/09/13 14:06:09;;;;;;;6.47;1.50;;;18.20;59.80;;;;;;5071999;28;20405;-56
2022/09/13 14:09:12;;;;;;;6.68;1.83;;;18.20;59.80;;;;;;4985242;28;20066;-55
2022/09/13 14:12:10;;;;;;;5.25;2.00;;;18.20;59.80;;;;;;4978896;28;20038;-57
2022/09/13 14:15:10;;;;;;;4.65;1.77;;;18.20;59.90;;;;;;5062412;28;20037;-55
2022/09/13 14:17:58;;;;;;;5.82;1.65;;;18.20;59.70;;;;;;5050333;28;20037;-56
2022/09/13 14:20:26;;;;;;;6.13;1.50;;;18.30;59.70;;;;;;5067352;28;20043;-56
2022/09/13 14:23:34;;;;;;;5.70;1.50;;;18.20;59.60;;;;;;5051539;28;20059;-57
2022/09/13 14:26:11;;;;;;;5.72;1.70;;;18.20;59.60;;;;;;4973536;28;20040;-56
2022/09/13 14:28:41;;;;;;;5.90;1.50;;;18.30;59.60;;;;;;4992430;28;20026;-57
2022/09/13 14:31:19;;;;;;;5.70;1.60;;;18.30;59.60;;;;;;5044498;28;20406;-56
2022/09/13 14:33:47;;;;;;;4.07;1.33;;;18.30;59.40;;;;;;5091191;28;20089;-56
2022/09/13 14:36:21;;;;;;;4.85;1.60;;;18.20;59.30;;;;;;5057187;28;20115;-57
2022/09/13 14:38:58;;;;;;;5.55;1.60;;;18.30;59.30;;;;;;5065185;28;20040;-57
2022/09/13 14:41:36;;;;;;;4.60;1.52;;;18.30;59.30;;;;;;5077652;28;20035;-57
2022/09/13 14:55:42;;;;;;;5.60;1.58;;;18.20;58.90;;;;;;5050450;28;20043;-56
2022/09/13 14:58:22;;;;;;;6.95;1.70;;;18.10;58.90;;;;;;5067358;28;20131;-55
2022/09/13 15:00:58;;;;;;;6.03;1.50;;;18.10;58.90;;;;;;5066160;28;20035;-55
2022/09/13 15:03:27;;;;;;;5.47;1.60;;;18.10;58.90;;;;;;5069740;28;20032;-56
2022/09/13 15:06:05;;;;;;;4.80;1.40;;;18.10;58.90;;;;;;5069601;28;20517;-55
2022/09/13 15:08:33;;;;;;;5.32;1.52;;;18.10;59.00;;;;;;5049378;28;20029;-56
2022/09/13 15:11:06;;;;;;;5.00;1.98;;;18.00;58.90;;;;;;5056808;28;20024;-56
2022/09/13 15:13:36;;;;;;;6.82;1.48;;;18.00;59.00;;;;;;5059162;28;20479;-57
2022/09/13 15:16:31;;;;;;;6.88;1.70;;;18.00;59.20;;;;;;5068853;28;20036;-57
2022/09/13 15:19:28;;;;;;;5.28;1.60;;;18.00;59.20;;;;;;5070371;28;20464;-57
2022/09/13 15:22:13;;;;;;;4.95;1.40;;;18.00;59.10;;;;;;5061171;28;20029;-56
2022/09/13 15:25:26;;;;;;;5.38;1.50;;;18.00;59.10;;;;;;5050074;28;20559;-56
2022/09/13 15:27:58;;;;;;;6.32;1.60;;;18.00;59.20;;;;;;5048724;28;20044;-56
2022/09/13 15:30:30;;;;;;;5.68;1.70;;;18.00;59.20;;;;;;5059789;28;20105;-56
2022/09/13 15:33:26;;;;;;;4.50;1.65;;;18.00;59.20;;;;;;5060411;28;20026;-56
2022/09/13 15:36:14;;;;;;;4.20;1.33;;;18.10;59.20;;;;;;5069120;28;20463;-56
2022/09/13 15:39:09;;;;;;;8.60;1.70;;;18.10;59.10;;;;;;5068123;28;20045;-56
2022/09/13 15:41:50;;;;;;;6.50;1.30;;;18.10;59.10;;;;;;5059676;28;20086;-57
2022/09/13 15:44:18;;;;;;;5.07;1.42;;;18.10;59.00;;;;;;5048620;28;20017;-57
2022/09/13 15:47:03;;;;;;;5.45;1.55;;;18.10;58.90;;;;;;5048903;28;20029;-57
2022/09/13 15:49:32;;;;;;;4.50;1.40;;;18.10;59.00;;;;;;5050000;28;20025;-56
2022/09/13 15:52:04;;;;;;;7.70;1.70;;;18.10;59.10;;;;;;5059010;28;20025;-56
2022/09/13 15:54:42;;;;;;;5.13;1.73;;;18.10;59.20;;;;;;5069633;28;20025;-56
2022/09/13 15:57:22;;;;;;;5.70;1.55;;;18.10;59.20;;;;;;5069657;28;20039;-57
2022/09/13 15:59:51;;;;;;;6.20;1.90;;;18.10;59.30;;;;;;5067733;28;20032;-56
2022/09/13 16:02:21;;;;;;;5.32;1.40;;;18.10;59.30;;;;;;5063061;28;20820;-56
2022/09/13 16:04:50;;;;;;;5.55;1.45;;;18.00;59.20;;;;;;5066173;28;20746;-56
2022/09/13 16:07:19;;;;;;;5.70;1.50;;;18.00;59.20;;;;;;5070279;28;20027;-55
2022/09/13 16:09:48;;;;;;;5.55;1.50;;;18.00;59.00;;;;;;5067496;28;20143;-56
2022/09/13 16:12:23;;;;;;;5.55;1.45;;;18.00;58.90;;;;;;5064162;28;20016;-56
2022/09/13 16:14:53;;;;;;;6.78;1.52;;;18.00;59.00;;;;;;5073078;28;20107;-57
2022/09/13 16:17:27;;;;;;;5.60;1.58;;;18.00;59.00;;;;;;5073311;28;20391;-56
2022/09/13 16:19:56;;;;;;;4.10;1.38;;;18.00;59.10;;;;;;5068548;28;20044;-56
2022/09/13 16:22:23;;;;;;;4.15;1.40;;;17.90;59.10;;;;;;5065184;28;20126;-56
2022/09/13 16:24:52;;;;;;;6.72;1.30;;;17.90;59.10;;;;;;5058364;28;20029;-56
2022/09/13 16:27:20;;;;;;;6.47;1.30;;;17.90;59.20;;;;;;5060352;28;20047;-56
2022/09/13 16:29:49;;;;;;;3.88;1.40;;;17.90;59.20;;;;;;5064604;28;20556;-56
2022/09/13 16:32:17;;;;;;;4.05;1.40;;;17.90;59.30;;;;;;5061300;28;20016;-56
2022/09/13 16:34:46;;;;;;;4.30;1.40;;;17.90;59.20;;;;;;5058465;28;20104;-56
2022/09/13 16:37:15;;;;;;;6.28;1.42;;;17.90;59.20;;;;;;5054072;28;20017;-56
2022/09/13 16:39:44;;;;;;;4.40;1.27;;;17.90;59.20;;;;;;5062557;28;20055;-56
2022/09/13 16:42:14;;;;;;;7.00;1.83;;;17.90;59.10;;;;;;5061191;28;20376;-56
2022/09/13 16:44:42;;;;;;;5.53;1.45;;;17.90;59.10;;;;;;5052665;28;20124;-56
2022/09/13 16:47:10;;;;;;;5.07;1.63;;;18.00;59.20;;;;;;5058776;28;20479;-56
2022/09/13 16:49:39;;;;;;;4.95;1.48;;;18.00;59.20;;;;;;5068764;28;20028;-56
2022/09/13 16:52:08;;;;;;;6.72;1.38;;;17.90;59.10;;;;;;5063052;28;20055;-56
2022/09/13 16:54:37;;;;;;;7.45;1.50;;;18.00;59.20;;;;;;5053572;28;20698;-56
2022/09/13 16:57:06;;;;;;;5.28;1.45;;;17.90;59.10;;;;;;5072261;28;20017;-56
2022/09/13 16:59:34;;;;;;;3.95;1.20;;;18.00;59.20;;;;;;5057783;28;20033;-56
2022/09/13 17:02:02;;;;;;;7.47;1.50;;;18.00;59.30;;;;;;5058590;28;20024;-56
2022/09/13 17:04:31;;;;;;;6.20;1.58;;;18.00;59.30;;;;;;5056876;28;20112;-56
2022/09/13 17:07:00;;;;;;;4.28;1.35;;;18.00;59.20;;;;;;5066737;28;20426;-56
2022/09/13 17:09:29;;;;;;;5.93;1.52;;;18.00;59.20;;;;;;5066002;28;20378;-56
2022/09/13 17:11:57;;;;;;;4.13;1.40;;;18.00;59.20;;;;;;5071309;28;20028;-56
2022/09/13 17:14:26;;;;;;;4.95;1.55;;;18.00;59.10;;;;;;5064762;28;20033;-56
2022/09/13 17:16:56;;;;;;;5.00;1.23;;;18.00;59.20;;;;;;5052218;28;20071;-56
2022/09/13 17:19:30;;;;;;;4.05;1.35;;;18.00;59.20;;;;;;5064472;28;20084;-56
2022/09/13 17:21:59;;;;;;;4.68;1.13;;;18.00;59.70;;;;;;5063462;28;20112;-56
2022/09/13 17:24:30;;;;;;;3.15;1.08;;;18.00;59.00;;;;;;5068176;28;20036;-56
2022/09/13 17:26:59;;;;;;;3.85;1.30;;;18.00;58.90;;;;;;5060817;28;20033;-56
2022/09/13 17:29:30;;;;;;;6.78;1.73;;;18.00;59.00;;;;;;5071886;28;20093;-57
2022/09/13 17:32:00;;;;;;;4.65;1.48;;;18.00;58.90;;;;;;5065780;28;20121;-56
2022/09/13 17:34:29;;;;;;;4.40;1.40;;;18.00;59.00;;;;;;5059914;28;20047;-56
2022/09/13 17:36:58;;;;;;;4.55;1.40;;;18.00;59.00;;;;;;5052665;28;20032;-56
2022/09/13 17:39:26;;;;;;;6.97;1.70;;;18.00;59.00;;;;;;5053308;28;20519;-56
2022/09/13 17:41:54;;;;;;;6.25;1.48;;;17.90;59.00;;;;;;5070430;28;20036;-56
2022/09/13 17:44:22;;;;;;;7.57;1.60;;;17.90;58.90;;;;;;5070115;28;20036;-55
2022/09/13 17:46:50;;;;;;;4.57;1.35;;;18.00;58.90;;;;;;5060943;28;20033;-56
2022/09/13 17:49:18;;;;;;;5.70;1.30;;;18.00;58.90;;;;;;5071519;28;20009;-55
2022/09/13 17:51:47;;;;;;;4.75;1.30;;;18.00;58.90;;;;;;5062068;28;20029;-56
2022/09/13 17:54:15;;;;;;;3.42;1.38;;;17.90;58.80;;;;;;5051397;28;20017;-56
2022/09/13 17:56:44;;;;;;;6.25;1.30;;;18.00;58.80;;;;;;5050715;28;20029;-56
2022/09/13 17:59:14;;;;;;;4.13;1.35;;;18.00;58.80;;;;;;5052259;28;20182;-55
2022/09/13 18:01:45;;;;;;;4.95;1.40;;;18.00;58.80;;;;;;5065850;28;20020;-55
2022/09/13 18:04:15;;;;;;;4.60;1.40;;;18.00;58.80;;;;;;5077296;28;20385;-55
2022/09/13 18:06:43;;;;;;;5.15;1.60;;;18.00;58.80;;;;;;5069361;28;20050;-55
2022/09/13 18:09:14;;;;;;;5.35;1.40;;;18.00;58.70;;;;;;5052862;28;20029;-55
2022/09/13 18:11:43;;;;;;;3.25;1.20;;;18.00;58.70;;;;;;5059576;28;20029;-56
2022/09/13 18:14:12;;;;;;;3.90;1.30;;;18.00;58.60;;;;;;5070233;28;20024;-55
2022/09/13 18:16:42;;;;;;;4.72;1.33;;;18.00;58.60;;;;;;5071508;28;20028;-55
2022/09/13 18:19:10;;;;;;;5.22;1.67;;;18.00;58.70;;;;;;5049740;28;20044;-56
2022/09/13 18:21:38;;;;;;;5.10;1.40;;;18.00;58.40;;;;;;5057103;28;20032;-55
2022/09/13 18:24:06;;;;;;;6.43;1.50;;;18.00;58.50;;;;;;5069595;28;20066;-56
2022/09/13 18:26:35;;;;;;;4.63;1.30;;;18.00;58.50;;;;;;5069157;28;20115;-56
2022/09/13 18:29:10;;;;;;;5.30;1.45;;;18.00;58.60;;;;;;5050480;28;20048;-55
2022/09/13 18:31:40;;;;;;;5.95;1.42;;;17.90;58.50;;;;;;5049267;28;20033;-56
2022/09/13 18:34:11;;;;;;;4.95;1.35;;;17.90;58.50;;;;;;5060714;28;20028;-55
2022/09/13 18:36:40;;;;;;;4.57;1.50;;;17.90;58.60;;;;;;5069315;28;20024;-56
2022/09/13 18:39:13;;;;;;;4.10;1.35;;;17.90;58.60;;;;;;5066867;28;20140;-56
2022/09/13 18:41:44;;;;;;;5.50;1.30;;;17.90;58.70;;;;;;5057865;28;20109;-55
2022/09/13 18:44:14;;;;;;;8.40;1.40;;;17.90;58.70;;;;;;5064167;28;20099;-56
2022/09/13 18:46:43;;;;;;;4.78;1.38;;;17.80;58.50;;;;;;5071059;28;20064;-56
2022/09/13 18:49:11;;;;;;;6.05;1.50;;;17.80;58.80;;;;;;5070438;28;20051;-55
2022/09/13 18:51:41;;;;;;;6.22;1.80;;;17.90;58.60;;;;;;5064813;28;20472;-55
2022/09/13 18:54:14;;;;;;;4.95;1.60;;;17.80;58.60;;;;;;5050517;28;20029;-55
2022/09/13 18:56:46;;;;;;;7.97;1.60;;;17.80;58.60;;;;;;5049519;28;20112;-55
2022/09/13 18:59:14;;;;;;;6.20;1.30;;;17.90;58.60;;;;;;5063266;28;20505;-55
2022/09/13 19:01:44;;;;;;;5.75;1.38;;;17.90;58.70;;;;;;5055969;28;20036;-55
2022/09/13 19:04:15;;;;;;;4.63;1.42;;;17.90;58.60;;;;;;5053401;28;20024;-56
2022/09/13 19:06:47;;;;;;;4.20;1.42;;;17.80;58.40;;;;;;5055710;28;20115;-55
2022/09/13 19:09:16;;;;;;;6.03;1.40;;;17.80;58.40;;;;;;5066335;28;20024;-56
2022/09/13 19:11:46;;;;;;;6.85;2.03;;;17.80;58.40;;;;;;5054631;28;20081;-56
2022/09/13 19:14:21;;;;;;;5.10;1.50;;;17.80;58.40;;;;;;5067702;28;20024;-55
2022/09/13 19:16:51;;;;;;;4.20;1.50;;;17.90;58.40;;;;;;5059312;28;20031;-56
2022/09/13 19:19:19;;;;;;;4.43;1.40;;;17.90;58.40;;;;;;5065486;28;20029;-55
2022/09/13 19:21:48;;;;;;;5.78;1.40;;;17.90;58.50;;;;;;5054930;28;20066;-55
2022/09/13 19:24:16;;;;;;;6.47;1.50;;;17.90;58.40;;;;;;5067865;28;20104;-55
2022/09/13 19:26:45;;;;;;;4.68;1.67;;;17.90;58.40;;;;;;5050401;28;20108;-56
2022/09/13 19:29:15;;;;;;;6.45;1.42;;;17.90;58.30;;;;;;5049876;28;20041;-56
2022/09/13 19:31:48;;;;;;;5.00;1.40;;;17.90;58.40;;;;;;5053072;28;20081;-55
2022/09/13 19:34:18;;;;;;;4.15;1.40;;;17.90;58.30;;;;;;5060081;28;20017;-55
2022/09/13 19:36:51;;;;;;;5.20;1.70;;;17.90;58.40;;;;;;5068905;28;20075;-56
2022/09/13 19:39:19;;;;;;;5.68;1.40;;;17.90;58.40;;;;;;5052115;28;20049;-56
2022/09/13 19:41:47;;;;;;;4.47;1.45;;;17.90;58.30;;;;;;5064596;28;20032;-55
2022/09/13 19:44:16;;;;;;;6.35;1.52;;;17.90;58.40;;;;;;5062057;28;20025;-56
2022/09/13 19:46:44;;;;;;;4.50;1.50;;;17.80;59.00;;;;;;5048880;28;20029;-56
2022/09/13 19:49:15;;;;;;;4.88;1.50;;;17.90;58.40;;;;;;5051044;28;20361;-55
2022/09/13 19:51:45;;;;;;;4.50;1.40;;;17.80;58.40;;;;;;5056459;28;20028;-56
2022/09/13 19:54:15;;;;;;;5.10;1.58;;;17.90;58.50;;;;;;5065725;28;20024;-55
2022/09/13 19:56:45;;;;;;;4.67;1.60;;;17.80;58.50;;;;;;5067681;28;20521;-55
2022/09/13 19:59:15;;;;;;;4.57;1.27;;;17.80;58.60;;;;;;5047525;28;20164;-55
2022/09/13 20:01:46;;;;;;;5.95;1.58;;;17.80;58.60;;;;;;5055118;28;20100;-55
2022/09/13 20:04:19;;;;;;;5.18;1.48;;;17.80;58.60;;;;;;5084569;28;20028;-55
2022/09/13 20:06:50;;;;;;;3.75;1.60;;;17.80;58.60;;;;;;5076885;28;20028;-56
2022/09/13 20:09:20;;;;;;;5.40;1.73;;;17.80;58.70;;;;;;5078173;28;20090;-55
2022/09/13 20:11:48;;;;;;;4.43;1.20;;;17.80;58.70;;;;;;5065163;28;20086;-55
2022/09/13 20:14:19;;;;;;;4.85;1.60;;;17.80;58.70;;;;;;5049496;28;20028;-55
2022/09/13 20:16:47;;;;;;;5.20;1.40;;;17.80;58.70;;;;;;5050365;28;20387;-55
2022/09/13 20:19:18;;;;;;;6.72;1.67;;;17.80;58.70;;;;;;5063575;28;20039;-55
2022/09/13 20:21:48;;;;;;;5.28;1.63;;;17.80;58.70;;;;;;5056375;28;20032;-55
2022/09/13 20:24:17;;;;;;;4.53;1.38;;;17.80;58.70;;;;;;5069528;28;20048;-55
2022/09/13 20:26:46;;;;;;;5.05;1.60;;;17.80;59.40;;;;;;5084164;28;20110;-56
2022/09/13 20:29:14;;;;;;;4.68;1.40;;;17.80;58.80;;;;;;5088156;28;20093;-56
2022/09/13 20:31:42;;;;;;;6.47;1.58;;;17.80;58.80;;;;;;5085532;28;20527;-56
2022/09/13 20:34:14;;;;;;;3.90;1.30;;;17.80;58.90;;;;;;5066494;28;20033;-57
2022/09/13 20:36:46;;;;;;;5.45;1.42;;;17.80;58.90;;;;;;5058481;28;20415;-56
2022/09/13 20:39:15;;;;;;;4.88;1.70;;;17.80;59.00;;;;;;5058108;28;20496;-56
2022/09/13 20:41:43;;;;;;;7.13;1.27;;;17.80;59.00;;;;;;5068009;28;20036;-56
2022/09/13 20:44:11;;;;;;;3.90;1.40;;;17.80;59.00;;;;;;5050920;28;20075;-56
2022/09/13 20:46:41;;;;;;;7.63;1.88;;;17.80;59.00;;;;;;5050683;28;20040;-56
2022/09/13 20:49:10;;;;;;;5.47;1.77;;;17.80;59.10;;;;;;5051755;28;20070;-54
2022/09/13 20:51:39;;;;;;;6.30;1.83;;;17.90;59.30;;;;;;5052169;28;20032;-56
2022/09/13 20:54:07;;;;;;;4.32;1.65;;;17.90;59.80;;;;;;5056435;28;20172;-57
2022/09/13 20:56:35;;;;;;;5.13;1.80;;;17.90;59.80;;;;;;5073166;28;20115;-56
2022/09/13 20:59:04;;;;;;;8.48;1.88;;;17.90;60.10;;;;;;5076647;28;20500;-56
2022/09/13 21:01:33;;;;;;;7.63;2.00;;;17.90;61.50;;;;;;5052201;28;20036;-57
2022/09/13 21:04:02;;;;;;;9.82;2.38;;;18.00;61.50;;;;;;5067425;28;20070;-57
2022/09/13 21:06:35;;;;;;;8.40;2.10;;;18.00;62.00;;;;;;5070363;28;20078;-57
2022/09/13 21:09:04;;;;;;;6.13;2.00;;;18.00;61.80;;;;;;5064536;28;20025;-55
2022/09/13 21:11:36;;;;;;;10.60;2.22;;;18.00;62.30;;;;;;5052868;28;20357;-54
2022/09/13 21:14:07;;;;;;;5.85;1.65;;;18.00;62.30;;;;;;5057797;28;20024;-56
2022/09/13 21:16:40;;;;;;;6.95;2.08;;;18.00;63.70;;;;;;5072943;28;20047;-55
2022/09/13 21:19:10;;;;;;;8.23;2.25;;;18.00;63.20;;;;;;5060927;28;20044;-54
2022/09/13 21:21:40;;;;;;;9.10;2.10;;;18.00;63.70;;;;;;5072782;28;20104;-57
2022/09/13 21:24:12;;;;;;;5.97;1.80;;;18.00;64.10;;;;;;5062847;28;20512;-57
2022/09/13 21:26:43;;;;;;;7.15;2.60;;;17.90;64.70;;;;;;5070156;28;20426;-56